Temp: 5.8°C   Baro: 1005.3mb
  Wind: 0.0mph   Dir: WNW (300°)
  Rain: 0.0mm (0.0mm/hr)
  Solar: 0W/m2  Hum: 94%
 
Bath Spa Weather Historical Data
 
Daily Summary for October 17, 2019 Units:  Metric    English   Both
Next Day »
Daily Weekly Monthly Yearly Custom
  Current: High: Low: Average:
Temperature: 5.8 °C 8.1 °C 5.5 °C 6.4 °C
Dew Point: 4.9 °C 6.7 °C 4.5 °C 5.3 °C
Humidity: 94% 94% 91% 92%
Wind Speed: 0.0km/h 3.2km/h 0.0km/h 0.2km/h
Wind Gust: 0.0km/h 8.0km/h - -
Wind directionCalm - - WNW
Pressure: 1005.3 hPa 1006.0 hPa 1005.3 hPa -
Precipitation: 0.0 mm      
Historical Graphs
 
 
Tabular Data for October 17, 2019
Time Temperature Dew Point Pressure Wind direction Wind Speed Wind Gust Humidity Rainfall Rate (Hourly) solar
00:00 8.1 °C 6.7 °C 1005.6 hPa NW 3.2 km/h 8.0 km/h 91% 0.0 mm 0.00 W/m2
00:05 8.1 °C 6.7 °C 1006.0 hPa Calm   1.6 km/h 91% 0.0 mm 0.00 W/m2
00:10 8.1 °C 6.7 °C 1006.0 hPa Calm   1.6 km/h 91% 0.0 mm 0.00 W/m2
00:15 8.0 °C 6.6 °C 1006.0 hPa Calm     91% 0.0 mm 0.00 W/m2
00:20 7.9 °C 6.5 °C 1006.0 hPa Calm     91% 0.0 mm 0.00 W/m2
00:25 7.7 °C 6.3 °C 1006.0 hPa Calm     91% 0.0 mm 0.00 W/m2
00:30 7.7 °C 6.3 °C 1006.0 hPa Calm     91% 0.0 mm 0.00 W/m2
00:35 7.7 °C 6.3 °C 1006.0 hPa Calm     91% 0.0 mm 0.00 W/m2
00:40 7.5 °C 6.1 °C 1006.0 hPa Calm     91% 0.0 mm 0.00 W/m2
00:45 7.3 °C 5.9 °C 1006.0 hPa Calm     91% 0.0 mm 0.00 W/m2
00:50 7.2 °C 5.8 °C 1006.0 hPa Calm     91% 0.0 mm 0.00 W/m2
00:55 7.2 °C 5.8 °C 1006.0 hPa Calm     91% 0.0 mm 0.00 W/m2
01:00 7.1 °C 5.7 °C 1006.0 hPa Calm     91% 0.0 mm 0.00 W/m2
01:05 7.0 °C 5.6 °C 1006.0 hPa Calm     91% 0.0 mm 0.00 W/m2
01:10 7.0 °C 5.6 °C 1006.0 hPa Calm     91% 0.0 mm 0.00 W/m2
01:15 7.0 °C 5.6 °C 1006.0 hPa Calm     91% 0.0 mm 0.00 W/m2
01:20 6.9 °C 5.5 °C 1006.0 hPa Calm     91% 0.0 mm 0.00 W/m2
01:25 6.8 °C 5.4 °C 1006.0 hPa Calm     91% 0.0 mm 0.00 W/m2
01:30 6.8 °C 5.4 °C 1006.0 hPa Calm     91% 0.0 mm 0.00 W/m2
01:35 6.8 °C 5.4 °C 1006.0 hPa Calm     91% 0.0 mm 0.00 W/m2
01:40 6.8 °C 5.4 °C 1006.0 hPa Calm     91% 0.0 mm 0.00 W/m2
01:45 6.7 °C 5.3 °C 1006.0 hPa Calm     91% 0.0 mm 0.00 W/m2
01:50 6.6 °C 5.2 °C 1006.0 hPa Calm     91% 0.0 mm 0.00 W/m2
01:55 6.6 °C 5.4 °C 1006.0 hPa Calm     92% 0.0 mm 0.00 W/m2
02:00 6.4 °C 5.2 °C 1006.0 hPa Calm     92% 0.0 mm 0.00 W/m2
02:05 6.4 °C 5.2 °C 1006.0 hPa Calm     92% 0.0 mm 0.00 W/m2
02:10 6.4 °C 5.2 °C 1006.0 hPa Calm     92% 0.0 mm 0.00 W/m2
02:15 6.3 °C 5.1 °C 1006.0 hPa Calm     92% 0.0 mm 0.00 W/m2
02:20 6.2 °C 5.0 °C 1006.0 hPa Calm     92% 0.0 mm 0.00 W/m2
02:25 6.2 °C 5.0 °C 1006.0 hPa Calm   3.2 km/h 92% 0.0 mm 0.00 W/m2
02:30 6.2 °C 5.0 °C 1006.0 hPa Calm     92% 0.0 mm 0.00 W/m2
02:35 6.1 °C 4.9 °C 1006.0 hPa Calm   1.6 km/h 92% 0.0 mm 0.00 W/m2
02:40 6.1 °C 4.9 °C 1006.0 hPa Calm     92% 0.0 mm 0.00 W/m2
02:45 6.1 °C 4.9 °C 1006.0 hPa Calm     92% 0.0 mm 0.00 W/m2
02:50 6.1 °C 4.9 °C 1006.0 hPa Calm     92% 0.0 mm 0.00 W/m2
02:55 6.0 °C 4.8 °C 1006.0 hPa NW 3.2 km/h 3.2 km/h 92% 0.0 mm 0.00 W/m2
03:00 5.9 °C 4.7 °C 1006.0 hPa Calm   1.6 km/h 92% 0.0 mm 0.00 W/m2
03:05 5.9 °C 4.7 °C 1006.0 hPa Calm     92% 0.0 mm 0.00 W/m2
03:10 5.9 °C 4.9 °C 1006.0 hPa Calm     93% 0.0 mm 0.00 W/m2
03:15 5.9 °C 4.7 °C 1006.0 hPa Calm     92% 0.0 mm 0.00 W/m2
03:20 5.8 °C 4.6 °C 1006.0 hPa Calm     92% 0.0 mm 0.00 W/m2
03:25 5.8 °C 4.6 °C 1006.0 hPa Calm     92% 0.0 mm 0.00 W/m2
03:30 5.7 °C 4.7 °C 1006.0 hPa Calm     93% 0.0 mm 0.00 W/m2
03:35 5.7 °C 4.7 °C 1006.0 hPa Calm     93% 0.0 mm 0.00 W/m2
03:40 5.6 °C 4.6 °C 1005.6 hPa Calm     93% 0.0 mm 0.00 W/m2
03:45 5.6 °C 4.6 °C 1005.6 hPa Calm     93% 0.0 mm 0.00 W/m2
03:50 5.6 °C 4.6 °C 1005.6 hPa Calm     93% 0.0 mm 0.00 W/m2
03:55 5.5 °C 4.5 °C 1005.6 hPa WNW 1.6 km/h 1.6 km/h 93% 0.0 mm 0.00 W/m2
04:00 5.5 °C 4.5 °C 1005.6 hPa Calm     93% 0.0 mm 0.00 W/m2
04:05 5.5 °C 4.5 °C 1006.0 hPa Calm     93% 0.0 mm 0.00 W/m2
04:10 5.6 °C 4.6 °C 1006.0 hPa Calm     93% 0.0 mm 0.00 W/m2
04:15 5.6 °C 4.6 °C 1005.6 hPa Calm     93% 0.0 mm 0.00 W/m2
04:20 5.7 °C 4.7 °C 1005.6 hPa Calm     93% 0.0 mm 0.00 W/m2
04:25 5.8 °C 4.8 °C 1005.6 hPa Calm     93% 0.0 mm 0.00 W/m2
04:30 5.9 °C 4.9 °C 1005.6 hPa Calm   1.6 km/h 93% 0.0 mm 0.00 W/m2
04:35 6.2 °C 5.2 °C 1005.6 hPa Calm   3.2 km/h 93% 0.0 mm 0.00 W/m2
04:40 6.4 °C 5.4 °C 1005.6 hPa WNW 1.4 km/h 1.6 km/h 93% 0.0 mm 0.00 W/m2
04:45 6.6 °C 5.7 °C 1005.6 hPa Calm     94% 0.0 mm 0.00 W/m2
04:50 6.6 °C 5.7 °C 1005.6 hPa Calm   1.6 km/h 94% 0.0 mm 0.00 W/m2
04:55 6.6 °C 5.7 °C 1005.6 hPa Calm     94% 0.0 mm 0.00 W/m2
05:00 6.5 °C 5.6 °C 1005.6 hPa Calm   1.6 km/h 94% 0.0 mm 0.00 W/m2
05:05 6.6 °C 5.7 °C 1005.6 hPa Calm     94% 0.0 mm 0.00 W/m2
05:10 6.5 °C 5.6 °C 1005.6 hPa Calm     94% 0.0 mm 0.00 W/m2
05:15 6.6 °C 5.7 °C 1005.6 hPa Calm   4.8 km/h 94% 0.0 mm 0.00 W/m2
05:20 6.4 °C 5.4 °C 1005.6 hPa Calm     93% 0.0 mm 0.00 W/m2
05:25 6.3 °C 5.4 °C 1005.6 hPa Calm     94% 0.0 mm 0.00 W/m2
05:30 6.3 °C 5.4 °C 1005.6 hPa Calm     94% 0.0 mm 0.00 W/m2
05:35 6.2 °C 5.3 °C 1005.6 hPa Calm     94% 0.0 mm 0.00 W/m2
05:40 6.2 °C 5.3 °C 1005.6 hPa Calm     94% 0.0 mm 0.00 W/m2
05:45 6.1 °C 5.2 °C 1005.6 hPa Calm     94% 0.0 mm 0.00 W/m2
05:50 6.0 °C 5.1 °C 1005.6 hPa Calm     94% 0.0 mm 0.00 W/m2
05:55 6.0 °C 5.1 °C 1005.3 hPa Calm     94% 0.0 mm 0.00 W/m2
06:00 5.9 °C 5.0 °C 1005.3 hPa Calm     94% 0.0 mm 0.00 W/m2
06:05 5.9 °C 5.0 °C 1005.3 hPa Calm     94% 0.0 mm 0.00 W/m2
06:10 5.8 °C 4.9 °C 1005.3 hPa Calm     94% 0.0 mm 0.00 W/m2
06:15 5.8 °C 4.9 °C 1005.3 hPa WNW 3.2 km/h 3.2 km/h 94% 0.0 mm 0.00 W/m2
06:20 5.8 °C 4.9 °C 1005.3 hPa Calm   1.6 km/h 94% 0.0 mm 0.00 W/m2
06:25 5.8 °C 4.9 °C 1005.3 hPa Calm     94% 0.0 mm 0.00 W/m2